• Join FlightAware (Why Join?)
  • Login
  • US Flag 
10:32PM EDT


 

Airport Tracker/Info


-or-


 

Live Flight TrackerFlight Track Log ✈ DAL4165 ✈ 23-Jul-2013 ✈ KMHT - KDTW

Flight Track Log - Related Links

Times and Time Zones

All times are in EDT time to prevent confusion due to time zone crossing. See the DAL4165 flight status page for this flight to view local times or setup timezone preferences in your user account.

Time Position Orientation Groundspeed Altitude Reporting Facility
EDT Latitude Longitude Course Direction KTS MPH feet Rate Location/Type
07:12AM 42.9500 -71.4167 270° West 157 181 1,000  Level KA90
07:13AM 42.9833 -71.4000 20° North 192 221 2,300 1,920 Climbing KA90
07:15AM 42.9417 -71.8248 279° West  Level FlightAware Approximate
07:15AM 43.0911 -71.3314 25° Northeast 246 283 6,400  Level Boston Center
07:16AM 42.9500 -71.9557 270° West  Level FlightAware Approximate
07:16AM 43.1564 -71.3983 323° Northwest 261 300 8,500  Level Boston Center
07:17AM 42.9501 -72.0876 270° West  Level FlightAware Approximate
07:17AM 43.1758 -71.4978 285° West 267 307 10,700  Level Boston Center
07:18AM 43.1769 -71.6086 271° West 282 325 12,700 1,920 Climbing Boston Center
07:19AM 43.1797 -71.7169 272° West 287 330 14,600 1,680 Climbing Boston Center
07:20AM 43.1803 -71.8308 270° West 293 337 16,100 1,200 Climbing Boston Center
07:21AM 43.1808 -71.9447 270° West 299 344 17,100 720 Climbing Boston Center
07:22AM 43.1833 -72.0300 272° West 317 365 17,600 840 Climbing Boston Center
07:23AM 43.1858 -72.1925 271° West 328 377 18,800 900 Climbing Boston Center
07:24AM 43.1861 -72.2806 270° West 328 377 19,500 600 Climbing Boston Center
07:25AM 43.1903 -72.4344 272° West 328 377 20,100 540 Climbing Boston Center
07:26AM 43.1903 -72.5683 270° West 339 390 20,600 480 Climbing Boston Center
07:27AM 43.1919 -72.6992 271° West 346 398 21,100 480 Climbing Boston Center
07:28AM 43.1939 -72.8331 271° West 351 404 21,600 420 Climbing Boston Center
07:29AM 43.1744 -72.9639 259° West 351 404 22,000 480 Climbing Boston Center
07:30AM 43.1406 -73.0861 249° West 345 397 22,600 540 Climbing Boston Center
07:31AM 43.1064 -73.2108 249° West 345 397 23,100 420 Climbing Boston Center
07:32AM 43.0678 -73.3608 251° West 351 404 23,700 660 Climbing Boston Center
07:33AM 43.0206 -73.5078 246° West 351 404 24,700 960 Climbing Boston Center
07:34AM 43.0256 -73.6386 273° West 343 395 25,700 900 Climbing Boston Center
07:35AM 43.0303 -73.7694 273° West 348 400 26,500 600 Climbing Boston Center
07:36AM 43.0392 -73.9058 275° West 348 400 27,000 480 Climbing Boston Center
07:37AM 43.0478 -74.0425 275° West 355 409 27,500 480 Climbing Boston Center
07:38AM 43.0583 -74.1792 276° West 361 415 28,000 240 Climbing Boston Center
07:39AM 43.0664 -74.3244 274° West 373 429 28,000  Level Boston Center
07:40AM 43.0744 -74.4667 274° West 378 435 28,000  Level Boston Center
07:41AM 43.0822 -74.6033 275° West 378 435 28,000  Level Boston Center
07:42AM 43.0900 -74.7403 274° West 368 423 28,000  Level Boston Center
07:43AM 43.0975 -74.8769 274° West 362 417 28,000  Level Boston Center
07:44AM 43.1064 -75.0453 274° West 368 423 28,000  Level Boston Center
07:45AM 43.1136 -75.1819 274° West 368 423 28,000  Level Boston Center
07:46AM 43.1206 -75.3189 274° West 368 423 28,000  Level Boston Center
07:47AM 43.1272 -75.4614 274° West 368 423 28,000  Level Boston Center
07:48AM 43.1358 -75.6128 275° West 368 423 28,000  Level Boston Center
07:49AM 43.1419 -75.7583 273° West 368 423 28,000 -60 Level Boston Center
07:50AM 43.1442 -75.8978 271° West 368 423 27,900  Descending Boston Center
07:51AM 43.1233 -76.0333 258° West 368 423 28,000  Climbing Boston Center
07:53AM 43.0792 -76.3019 257° West 364 419 28,000  Level Cleveland Center
07:54AM 43.0717 -76.4392 266° West 364 419 28,000  Level Cleveland Center
07:55AM 43.0642 -76.5789 266° West 364 419 28,000  Level Cleveland Center
07:56AM 43.0561 -76.7131 265° West 364 419 28,000  Level Cleveland Center
07:57AM 43.0461 -76.8500 264° West 369 425 28,000  Level Cleveland Center
07:58AM 43.0400 -76.9839 266° West 369 425 28,000  Level Cleveland Center
07:59AM 43.0317 -77.1208 265° West 369 425 28,000  Level Cleveland Center
08:00AM 43.0250 -77.2547 266° West 369 425 28,000  Level Cleveland Center
08:01AM 43.0164 -77.3886 265° West 369 425 28,000  Level Cleveland Center
08:02AM 43.0075 -77.5225 265° West 369 425 28,000  Level Cleveland Center
08:03AM 42.9983 -77.6478 264° West 369 425 28,000  Level Cleveland Center
08:04AM 42.9911 -77.7844 266° West 369 425 28,000  Level Cleveland Center
08:05AM 42.9819 -77.9211 265° West 369 425 28,000  Level Cleveland Center
08:06AM 42.9725 -78.0578 265° West 369 425 28,000  Level Cleveland Center
08:07AM 42.9628 -78.1944 264° West 369 425 28,000  Level Cleveland Center
08:08AM 42.9531 -78.3308 264° West 369 425 28,000  Level Cleveland Center
08:09AM 42.9433 -78.4703 265° West 369 425 28,000  Level Cleveland Center
08:10AM 42.9333 -78.6153 265° West 369 425 28,000  Level Cleveland Center
08:11AM 42.9147 -78.7603 260° West 381 438 28,000  Level Cleveland Center
08:12AM 42.8919 -78.9083 258° West 393 452 28,000  Level Cleveland Center
08:13AM 42.8753 -79.0533 261° West 398 458 28,000  Level Cleveland Center
08:14AM 42.8481 -79.2097 257° West 403 464 28,000  Level Cleveland Center
08:15AM 42.8289 -79.3603 260° West 408 470 28,000  Level Cleveland Center
08:16AM 42.8075 -79.5106 259° West 414 476 28,000  Level Cleveland Center
08:17AM 42.7839 -79.6639 258° West 414 476 28,000  Level Cleveland Center
08:18AM 42.7597 -79.8111 257° West 414 476 28,000  Level Cleveland Center
08:19AM 42.7483 -79.9611 264° West 409 471 28,000  Level Cleveland Center
08:20AM 42.7406 -80.1139 266° West 409 471 28,000  Level Cleveland Center
08:21AM 42.7350 -80.2581 267° West 392 451 28,000 -360 Level Cleveland Center
08:22AM 42.7289 -80.3939 267° West 372 428 27,300 -900 Descending Cleveland Center
08:23AM 42.7228 -80.5239 266° West 360 414 26,300 -1,020 Descending Cleveland Center
08:24AM 42.7186 -80.6567 268° West 338 389 25,300 -1,020 Descending Cleveland Center
08:25AM 42.7100 -80.7839 265° West 331 381 24,300 -1,020 Descending Cleveland Center
08:26AM 42.7058 -80.8969 267° West 318 366 23,300 -1,020 Descending Cleveland Center
08:27AM 42.6950 -81.0011 262° West 299 344 22,300 -1,020 Descending Cleveland Center
08:28AM 42.6819 -81.1000 260° West 272 313 21,300 -1,020 Descending Cleveland Center
08:29AM 42.6711 -81.1958 261° West 262 302 20,300 -1,020 Descending Cleveland Center
08:30AM 42.6603 -81.2889 261° West 257 296 19,300 -1,200 Descending Cleveland Center
08:31AM 42.6492 -81.3878 261° West 262 302 18,000 -1,200 Descending Cleveland Center
08:32AM 42.6381 -81.4836 261° West 263 303 17,000 -900 Descending Cleveland Center
08:33AM 42.6289 -81.5708 262° West 263 303 16,200 -1,020 Descending Cleveland Center
08:34AM 42.6156 -81.6722 260° West 256 295 15,000 -1,020 Descending Cleveland Center
08:35AM 42.6042 -81.7567 260° West 256 295 14,200 -540 Descending Cleveland Center
08:36AM 42.5928 -81.8550 261° West 251 289 14,000 -120 Descending Cleveland Center
08:37AM 42.5814 -81.9450 260° West 251 289 14,000  Level Cleveland Center
08:38AM 42.5700 -82.0322 260° West 246 283 14,000  Level Cleveland Center
08:39AM 42.5583 -82.1222 260° West 241 277 14,000  Level Cleveland Center
08:40AM 42.5486 -82.2122 262° West 241 277 14,000  Level Cleveland Center
08:41AM 42.5431 -82.3050 265° West 241 277 14,000 -480 Level Cleveland Center
08:42AM 42.5772 -82.3906 298° West 241 277 13,100 -1,020 Descending Cleveland Center
08:43AM 42.5828 -82.4472 278° West 238 274 12,400 -720 Descending Cleveland Center
08:44AM 42.5444 -82.4939 222° Southwest 240 276 12,100 -300 Descending Cleveland Center
08:44AM 42.5186 -82.5325 228° Southwest 211 243 12,000  Descending Cleveland Center
08:45AM 42.4992 -82.5742 238° Southwest 237 273 12,100 -660 Climbing Cleveland Center
08:46AM 42.4708 -82.6522 244° Southwest 237 273 11,100 -960 Descending Cleveland Center
08:46AM 42.4575 -82.6883 243° Southwest 231 266 10,800 -600 Descending Cleveland Center
08:47AM 42.4289 -82.7689 244° Southwest 236 272 10,200 -960 Descending Cleveland Center
08:48AM 42.4114 -82.8217 246° West 243 280 9,300 -1,440 Descending Cleveland Center
08:49AM 42.4200 -82.9064 278° West 226 260 7,900 -1,260 Descending Cleveland Center
08:50AM 42.4350 -82.9914 283° West 220 253 6,800 -1,080 Descending Cleveland Center
08:51AM 42.4247 -83.0811 261° West 221 254 5,600 -1,020 Descending Cleveland Center
08:52AM 42.3897 -83.1611 239° Southwest 233 268 4,700 -1,080 Descending Cleveland Center
08:53AM 42.3547 -83.2272 234° Southwest 208 239 3,500 -1,200 Descending Cleveland Center